createdAt,value
2022-10-27T00:01:03.785Z,10.70
2022-10-27T00:03:37.272Z,10.00
2022-10-27T00:06:07.985Z,11.20
2022-10-27T00:08:37.394Z,10.50
2022-10-27T00:11:07.166Z,9.80
2022-10-27T00:13:36.680Z,10.10
2022-10-27T00:16:10.120Z,9.80
2022-10-27T00:18:38.586Z,10.30
2022-10-27T00:21:20.479Z,11.10
2022-10-27T00:23:50.885Z,10.00
2022-10-27T00:26:21.811Z,10.90
2022-10-27T00:28:49.659Z,10.40
2022-10-27T00:31:22.880Z,10.70
2022-10-27T00:33:51.704Z,10.70
2022-10-27T00:36:23.018Z,10.70
2022-10-27T00:38:59.554Z,11.70
2022-10-27T00:41:41.821Z,11.20
2022-10-27T00:44:31.665Z,10.40
2022-10-27T00:47:25.282Z,11.00
2022-10-27T00:50:08.069Z,10.40
2022-10-27T00:52:50.713Z,11.30
2022-10-27T00:55:36.465Z,10.70
2022-10-27T00:58:10.033Z,10.70
2022-10-27T01:00:40.857Z,11.30
2022-10-27T01:03:13.342Z,10.40
2022-10-27T01:05:43.404Z,10.10
2022-10-27T01:08:12.974Z,10.10
2022-10-27T01:10:40.799Z,10.70
2022-10-27T01:13:08.716Z,10.30
2022-10-27T01:16:10.264Z,10.50
2022-10-27T01:19:22.146Z,9.70
2022-10-27T01:25:03.903Z,9.80
2022-10-27T01:28:08.995Z,9.80
2022-10-27T01:31:01.263Z,8.90
2022-10-27T01:33:49.425Z,10.20
2022-10-27T01:36:31.566Z,9.30
2022-10-27T01:39:27.497Z,9.50
2022-10-27T01:42:06.079Z,9.30
2022-10-27T01:44:41.600Z,9.20
2022-10-27T01:47:12.044Z,9.20
2022-10-27T01:49:43.068Z,10.30
2022-10-27T01:52:49.214Z,10.20
2022-10-27T01:55:56.494Z,10.60
2022-10-27T01:58:46.615Z,10.60
2022-10-27T02:01:37.887Z,10.00
2022-10-27T02:04:52.555Z,11.00
2022-10-27T02:07:46.066Z,11.30
2022-10-27T02:10:23.456Z,10.90
2022-10-27T02:12:52.777Z,10.70
2022-10-27T02:15:37.131Z,10.00
2022-10-27T02:18:34.078Z,9.60
2022-10-27T02:21:07.828Z,10.00
2022-10-27T02:23:36.574Z,10.50
2022-10-27T02:26:19.573Z,10.30
2022-10-27T02:29:01.728Z,9.40
2022-10-27T02:31:44.409Z,9.40
2022-10-27T02:34:13.280Z,10.70
2022-10-27T02:36:41.119Z,10.40
2022-10-27T02:39:08.825Z,10.70
2022-10-27T02:41:36.551Z,10.40
2022-10-27T02:44:04.508Z,10.00
2022-10-27T02:46:32.222Z,10.10
2022-10-27T02:49:00.037Z,9.80
2022-10-27T02:51:27.771Z,9.60
2022-10-27T02:53:55.751Z,10.10
2022-10-27T02:56:23.435Z,10.30
2022-10-27T02:58:51.196Z,10.70
2022-10-27T03:01:18.934Z,10.20
2022-10-27T03:03:46.853Z,10.00
2022-10-27T03:06:14.661Z,9.50
2022-10-27T03:08:42.368Z,10.20
2022-10-27T03:11:10.142Z,10.30
2022-10-27T03:13:37.987Z,9.40
2022-10-27T03:16:06.108Z,9.30
2022-10-27T03:18:33.896Z,9.90
2022-10-27T03:21:01.613Z,9.10
2022-10-27T03:23:30.165Z,9.10
2022-10-27T03:26:00.151Z,9.10
2022-10-27T03:28:30.435Z,8.80
2022-10-27T03:30:58.149Z,8.80
2022-10-27T03:33:25.831Z,8.40
2022-10-27T03:35:53.805Z,9.10
2022-10-27T03:38:21.704Z,8.50
2022-10-27T03:40:49.548Z,8.40
2022-10-27T03:43:17.330Z,7.80
2022-10-27T03:45:51.591Z,8.40
2022-10-27T03:48:19.306Z,8.70
2022-10-27T03:50:50.158Z,8.00
2022-10-27T03:53:18.939Z,7.60
2022-10-27T03:55:48.804Z,7.70
2022-10-27T03:58:18.577Z,8.20
2022-10-27T04:00:47.075Z,7.80
2022-10-27T04:03:14.845Z,7.50
2022-10-27T04:05:42.637Z,7.20
2022-10-27T04:08:10.406Z,7.90
2022-10-27T04:10:38.139Z,7.60
2022-10-27T04:13:05.999Z,8.00
2022-10-27T04:15:33.763Z,8.50
2022-10-27T04:18:01.454Z,8.40
2022-10-27T04:20:30.186Z,8.30
2022-10-27T04:22:59.833Z,8.20
2022-10-27T04:25:27.853Z,8.20
2022-10-27T04:28:02.730Z,7.90
2022-10-27T04:30:30.567Z,8.50
2022-10-27T04:32:58.419Z,9.40
2022-10-27T04:35:26.621Z,9.30
2022-10-27T04:37:58.275Z,8.70
2022-10-27T04:40:26.338Z,8.20
2022-10-27T04:42:54.126Z,8.30
2022-10-27T04:45:22.835Z,7.90
2022-10-27T04:47:50.795Z,8.10
2022-10-27T04:50:19.355Z,8.30
2022-10-27T04:53:02.281Z,9.70
2022-10-27T04:55:33.567Z,9.60
2022-10-27T04:58:05.553Z,9.40
2022-10-27T05:00:36.701Z,9.80
2022-10-27T05:03:04.570Z,9.80
2022-10-27T05:05:32.607Z,9.20
2022-10-27T05:08:03.386Z,10.10
2022-10-27T05:10:34.313Z,9.60
2022-10-27T05:13:02.452Z,9.90
2022-10-27T05:15:30.594Z,10.20
2022-10-27T05:17:59.029Z,10.00
2022-10-27T05:20:26.787Z,9.80
2022-10-27T05:22:54.611Z,10.20
2022-10-27T05:25:22.343Z,9.20
2022-10-27T05:27:50.396Z,9.30
2022-10-27T05:30:18.775Z,8.80
2022-10-27T05:32:47.628Z,10.70
2022-10-27T05:35:15.694Z,9.80
2022-10-27T05:37:45.546Z,9.20
2022-10-27T05:40:14.687Z,10.90
2022-10-27T05:42:56.787Z,9.00
2022-10-27T05:45:25.213Z,9.80
2022-10-27T05:48:02.171Z,9.50
2022-10-27T05:50:30.466Z,9.70
2022-10-27T05:52:58.666Z,10.00
2022-10-27T05:55:27.499Z,11.50
2022-10-27T05:58:05.006Z,11.40
2022-10-27T06:00:37.032Z,10.10
2022-10-27T06:03:08.142Z,10.10
2022-10-27T06:05:37.479Z,10.80
2022-10-27T06:08:05.611Z,9.80
2022-10-27T06:10:33.401Z,9.30
2022-10-27T06:13:06.736Z,10.00
2022-10-27T06:15:35.318Z,9.90
2022-10-27T06:18:03.734Z,9.00
2022-10-27T06:20:31.523Z,9.80
2022-10-27T06:22:59.744Z,10.30
2022-10-27T06:25:27.450Z,10.20
2022-10-27T06:27:56.247Z,9.70
2022-10-27T06:30:24.231Z,10.30
2022-10-27T06:32:52.402Z,9.20
2022-10-27T06:35:20.976Z,8.80
2022-10-27T06:37:48.894Z,9.00
2022-10-27T06:40:20.283Z,9.00
2022-10-27T06:43:07.715Z,8.60
2022-10-27T06:45:37.407Z,8.50
2022-10-27T06:48:08.740Z,9.80
2022-10-27T06:50:37.012Z,9.00
2022-10-27T06:53:05.400Z,10.20
2022-10-27T06:55:33.872Z,9.80
2022-10-27T06:58:01.682Z,9.70
2022-10-27T07:00:30.460Z,9.60
2022-10-27T07:02:58.450Z,9.90
2022-10-27T07:05:26.608Z,9.70
2022-10-27T07:07:54.929Z,10.80
2022-10-27T07:10:23.358Z,10.90
2022-10-27T07:12:56.546Z,9.40
2022-10-27T07:15:27.971Z,9.30
2022-10-27T07:18:02.662Z,8.70
2022-10-27T07:20:33.606Z,9.20
2022-10-27T07:23:03.212Z,8.90
2022-10-27T07:25:33.727Z,10.20
2022-10-27T07:28:04.985Z,9.70
2022-10-27T07:30:38.630Z,10.50
2022-10-27T07:33:06.986Z,11.30
2022-10-27T07:35:35.311Z,11.00
2022-10-27T07:38:03.053Z,10.80
2022-10-27T07:40:33.200Z,11.40
2022-10-27T07:43:05.302Z,10.30
2022-10-27T07:45:40.879Z,9.50
2022-10-27T07:48:14.740Z,9.70
2022-10-27T07:50:45.086Z,10.10
2022-10-27T07:53:15.727Z,10.60
2022-10-27T07:55:43.849Z,10.10
2022-10-27T07:58:15.798Z,10.30
2022-10-27T08:00:46.805Z,11.50
2022-10-27T08:03:21.938Z,11.20
2022-10-27T08:05:50.122Z,11.10
2022-10-27T08:08:18.938Z,10.40
2022-10-27T08:10:49.906Z,10.00
2022-10-27T08:13:17.781Z,11.00
2022-10-27T08:15:45.777Z,9.60
2022-10-27T08:18:14.564Z,9.60
2022-10-27T08:20:46.092Z,9.70
2022-10-27T08:23:17.232Z,10.00
2022-10-27T08:25:45.450Z,8.30
2022-10-27T08:28:15.233Z,7.90
2022-10-27T08:30:51.984Z,8.00
2022-10-27T08:33:22.819Z,8.20
2022-10-27T08:35:51.691Z,8.20
2022-10-27T08:38:20.523Z,7.40
2022-10-27T08:41:08.553Z,7.40
2022-10-27T08:44:03.958Z,6.20
2022-10-27T08:46:44.792Z,5.40
2022-10-27T08:49:35.550Z,5.40
2022-10-27T08:52:15.285Z,4.90
2022-10-27T08:54:51.540Z,5.50
2022-10-27T08:57:28.380Z,5.70
2022-10-27T08:59:58.444Z,5.90
2022-10-27T09:03:23.611Z,5.50
2022-10-27T09:06:11.532Z,5.70
2022-10-27T09:09:10.037Z,5.10
2022-10-27T09:11:49.821Z,6.10
2022-10-27T09:15:07.190Z,5.10
2022-10-27T09:17:43.078Z,4.90
2022-10-27T09:20:36.410Z,4.70
2022-10-27T09:23:12.929Z,4.50
2022-10-27T09:25:42.808Z,4.50
2022-10-27T09:28:22.820Z,4.60
2022-10-27T09:30:53.283Z,4.40
2022-10-27T09:33:28.913Z,4.90
2022-10-27T09:35:57.906Z,4.90
2022-10-27T09:38:27.825Z,4.30
2022-10-27T09:40:55.997Z,4.60
2022-10-27T09:43:24.355Z,4.30
2022-10-27T09:46:06.531Z,5.10
2022-10-27T09:48:35.163Z,4.60
2022-10-27T09:51:14.564Z,4.70
2022-10-27T09:53:48.989Z,4.70
2022-10-27T09:56:33.149Z,4.50
2022-10-27T09:59:04.590Z,4.80
2022-10-27T10:01:57.430Z,4.70
2022-10-27T10:04:31.773Z,4.50
2022-10-27T10:07:05.020Z,4.80
2022-10-27T10:09:35.596Z,4.60
2022-10-27T10:12:23.366Z,4.90
2022-10-27T10:15:12.826Z,4.10
2022-10-27T10:17:44.176Z,4.50
2022-10-27T10:23:35.440Z,4.20
2022-10-27T10:26:19.577Z,4.70
2022-10-27T10:28:54.972Z,4.30
2022-10-27T10:31:29.328Z,4.30
2022-10-27T10:34:23.785Z,4.60
2022-10-27T10:36:51.679Z,4.40
2022-10-27T10:39:27.529Z,4.70
2022-10-27T10:42:10.992Z,4.20
2022-10-27T10:44:39.040Z,4.20
2022-10-27T10:47:22.554Z,4.60
2022-10-27T10:49:57.077Z,4.40
2022-10-27T10:52:39.490Z,4.50
2022-10-27T10:55:20.151Z,4.30
2022-10-27T10:57:55.126Z,5.10
2022-10-27T11:00:23.829Z,4.70
2022-10-27T11:03:01.675Z,4.30
2022-10-27T11:05:34.250Z,11.60
2022-10-27T11:08:05.603Z,13.80
2022-10-27T11:10:43.196Z,6.50
2022-10-27T11:13:23.932Z,7.60
2022-10-27T11:16:01.790Z,7.30
2022-10-27T11:18:51.470Z,7.60
2022-10-27T11:21:35.866Z,7.10
2022-10-27T11:24:22.743Z,8.20
2022-10-27T11:27:08.084Z,7.60
2022-10-27T11:30:10.536Z,7.90
2022-10-27T11:32:53.873Z,7.10
2022-10-27T11:36:04.238Z,7.10
2022-10-27T11:38:51.950Z,7.90
2022-10-27T11:41:52.098Z,7.00
2022-10-27T11:44:35.263Z,8.40
2022-10-27T11:47:39.479Z,8.20
2022-10-27T11:50:15.856Z,8.00
2022-10-27T11:52:51.457Z,8.30
2022-10-27T11:55:34.717Z,7.40
2022-10-27T11:58:26.189Z,7.40
2022-10-27T12:01:08.537Z,6.60
2022-10-27T12:04:07.758Z,7.90
2022-10-27T12:07:08.247Z,8.30
2022-10-27T12:09:45.112Z,8.60
2022-10-27T12:12:39.801Z,8.30
2022-10-27T12:15:39.874Z,6.50
2022-10-27T12:18:25.298Z,7.60
2022-10-27T12:21:02.698Z,7.40
2022-10-27T12:23:45.018Z,8.70
2022-10-27T12:26:42.465Z,8.50
2022-10-27T12:29:13.694Z,8.40
2022-10-27T12:32:25.148Z,8.30
2022-10-27T12:35:05.314Z,9.10
2022-10-27T12:38:19.971Z,8.00
2022-10-27T12:41:08.242Z,8.50
2022-10-27T12:43:55.906Z,8.40
2022-10-27T12:46:43.482Z,7.90
2022-10-27T12:49:23.756Z,8.60
2022-10-27T12:52:23.348Z,8.20
2022-10-27T12:55:15.524Z,8.30
2022-10-27T12:58:01.648Z,8.60
2022-10-27T13:00:44.611Z,7.00
2022-10-27T13:03:23.852Z,8.10
2022-10-27T13:06:33.141Z,8.30
2022-10-27T13:09:28.945Z,8.30
2022-10-27T13:12:27.992Z,8.20
2022-10-27T13:15:31.023Z,6.70
2022-10-27T13:18:01.830Z,6.20
2022-10-27T13:20:56.554Z,7.50
2022-10-27T13:24:09.854Z,7.60
2022-10-27T13:26:54.301Z,7.70
2022-10-27T13:29:36.829Z,7.70
2022-10-27T13:32:20.043Z,8.20
2022-10-27T13:34:59.990Z,8.20
2022-10-27T13:37:41.013Z,7.90
2022-10-27T13:40:41.504Z,8.00
2022-10-27T13:43:21.915Z,7.20
2022-10-27T13:45:56.184Z,7.70
2022-10-27T13:48:23.994Z,6.90
2022-10-27T13:50:56.003Z,8.00
2022-10-27T13:53:26.446Z,7.50
2022-10-27T13:56:37.427Z,7.60
2022-10-27T13:59:20.020Z,7.90
2022-10-27T14:01:58.815Z,8.00
2022-10-27T14:04:51.235Z,7.00
2022-10-27T14:07:19.288Z,6.90
2022-10-27T14:09:51.082Z,6.10
2022-10-27T14:12:36.509Z,7.70
2022-10-27T14:15:20.502Z,7.00
2022-10-27T14:17:49.571Z,6.50
2022-10-27T14:20:30.099Z,6.50
2022-10-27T14:23:11.077Z,6.20
2022-10-27T14:25:39.138Z,6.60
2022-10-27T14:28:12.925Z,6.50
2022-10-27T14:30:46.126Z,6.80
2022-10-27T14:33:23.769Z,6.50
2022-10-27T14:36:30.655Z,6.30
2022-10-27T14:39:25.219Z,7.30
2022-10-27T14:42:02.996Z,6.70
2022-10-27T14:44:36.013Z,7.00
2022-10-27T14:47:11.658Z,7.20
2022-10-27T14:49:50.990Z,6.50
2022-10-27T14:52:34.511Z,6.60
2022-10-27T14:55:02.497Z,4.90
2022-10-27T14:57:37.274Z,5.30
2022-10-27T15:00:30.928Z,6.30
2022-10-27T15:03:04.025Z,5.90
2022-10-27T15:05:46.487Z,7.00
2022-10-27T15:08:21.705Z,8.50
2022-10-27T15:10:53.506Z,8.90
2022-10-27T15:13:25.084Z,7.80
2022-10-27T15:15:59.374Z,8.90
2022-10-27T15:18:36.504Z,8.70
2022-10-27T15:21:27.165Z,9.00
2022-10-27T15:24:07.329Z,9.70
2022-10-27T15:26:35.352Z,9.80
2022-10-27T15:31:42.853Z,10.00
2022-10-27T15:34:33.569Z,10.30
2022-10-27T15:37:30.896Z,10.40
2022-10-27T15:40:31.953Z,12.30
2022-10-27T15:43:02.495Z,12.90
2022-10-27T15:45:51.015Z,12.10
2022-10-27T15:48:33.926Z,11.70
2022-10-27T15:51:14.515Z,12.00
2022-10-27T15:53:57.714Z,10.90
2022-10-27T15:56:39.604Z,11.10
2022-10-27T15:59:20.513Z,11.30
2022-10-27T16:01:51.811Z,14.20
2022-10-27T16:04:35.210Z,13.80
2022-10-27T16:07:11.981Z,12.70
2022-10-27T16:09:45.809Z,13.60
2022-10-27T16:12:17.233Z,13.00
2022-10-27T16:14:54.064Z,13.30
2022-10-27T16:17:26.315Z,13.50
2022-10-27T16:20:04.336Z,11.70
2022-10-27T16:22:32.277Z,12.00
2022-10-27T16:25:00.329Z,13.10
2022-10-27T16:27:30.628Z,11.20
2022-10-27T16:30:02.485Z,11.40
2022-10-27T16:32:33.849Z,10.10
2022-10-27T16:35:05.556Z,12.90
2022-10-27T16:37:34.015Z,13.30
2022-10-27T16:40:01.712Z,15.00
2022-10-27T16:42:31.436Z,15.50
2022-10-27T16:44:59.177Z,13.70
2022-10-27T16:47:27.035Z,13.90
2022-10-27T16:49:56.532Z,13.40
2022-10-27T16:52:25.884Z,14.30
2022-10-27T16:54:53.636Z,13.30
2022-10-27T16:59:50.184Z,11.00
2022-10-27T17:02:17.996Z,13.50
2022-10-27T17:04:45.798Z,12.70
2022-10-27T17:07:13.764Z,14.20
2022-10-27T17:09:41.664Z,14.20
2022-10-27T17:12:10.385Z,13.60
2022-10-27T17:14:38.219Z,13.40
2022-10-27T17:17:06.082Z,13.10
2022-10-27T17:19:33.782Z,12.90
2022-10-27T17:22:01.846Z,14.80
2022-10-27T17:24:30.507Z,13.10
2022-10-27T17:26:58.284Z,13.60
2022-10-27T17:29:26.839Z,13.40
2022-10-27T17:31:54.605Z,13.90
2022-10-27T17:34:22.473Z,13.40
2022-10-27T17:36:50.557Z,16.00
2022-10-27T17:39:18.573Z,13.70
2022-10-27T17:41:46.800Z,15.40
2022-10-27T17:44:14.637Z,16.20
2022-10-27T17:46:42.297Z,16.20
2022-10-27T17:49:10.062Z,16.10
2022-10-27T17:51:37.848Z,16.00
2022-10-27T17:54:05.675Z,14.80
2022-10-27T17:56:36.900Z,14.00
2022-10-27T17:59:14.151Z,15.80
2022-10-27T18:01:43.223Z,13.80
2022-10-27T18:04:12.362Z,12.90
2022-10-27T18:06:42.377Z,12.80
2022-10-27T18:09:11.438Z,13.00
2022-10-27T18:11:39.269Z,13.30
2022-10-27T18:14:14.468Z,13.10
2022-10-27T18:16:44.387Z,14.70
2022-10-27T18:19:14.836Z,13.40
2022-10-27T18:21:46.217Z,14.40
2022-10-27T18:24:16.834Z,15.60
2022-10-27T18:26:48.411Z,13.00
2022-10-27T18:29:18.646Z,14.90
2022-10-27T18:31:48.791Z,14.30
2022-10-27T18:34:17.177Z,12.90
2022-10-27T18:36:45.866Z,13.60
2022-10-27T18:39:18.847Z,13.60
2022-10-27T18:41:49.238Z,13.10
2022-10-27T18:44:17.629Z,13.80
2022-10-27T18:46:45.465Z,13.80
2022-10-27T18:49:16.044Z,13.10
2022-10-27T18:51:48.290Z,14.10
2022-10-27T18:54:16.334Z,13.70
2022-10-27T18:56:44.445Z,14.10
2022-10-27T18:59:13.441Z,13.50
2022-10-27T19:01:43.540Z,13.30
2022-10-27T19:04:11.437Z,14.10
2022-10-27T19:06:39.216Z,14.40
2022-10-27T19:09:07.174Z,15.20
2022-10-27T19:11:36.735Z,13.30
2022-10-27T19:14:05.052Z,13.10
2022-10-27T19:16:33.058Z,13.30
2022-10-27T19:19:01.363Z,12.80
2022-10-27T19:21:30.502Z,13.20
2022-10-27T19:24:02.508Z,13.90
2022-10-27T19:26:34.833Z,13.30
2022-10-27T19:29:03.016Z,13.80
2022-10-27T19:31:38.653Z,13.40
2022-10-27T19:34:10.094Z,14.60
2022-10-27T19:36:40.559Z,13.70
2022-10-27T19:39:11.438Z,13.80
2022-10-27T19:41:40.268Z,13.10
2022-10-27T19:44:08.150Z,13.00
2022-10-27T19:46:36.009Z,12.20
2022-10-27T19:49:12.972Z,12.30
2022-10-27T19:51:40.871Z,12.10
2022-10-27T19:54:19.149Z,14.50
2022-10-27T19:56:48.659Z,13.60
2022-10-27T19:59:19.838Z,12.30
2022-10-27T20:01:51.774Z,11.80
2022-10-27T20:04:22.934Z,12.00
2022-10-27T20:06:50.794Z,11.90
2022-10-27T20:09:21.449Z,11.30
2022-10-27T20:11:50.199Z,12.00
2022-10-27T20:14:18.183Z,11.80
2022-10-27T20:16:47.235Z,11.30
2022-10-27T20:19:22.022Z,11.90
2022-10-27T20:21:50.998Z,12.00
2022-10-27T20:24:20.634Z,11.40
2022-10-27T20:29:25.746Z,11.60
2022-10-27T20:31:55.271Z,11.00
2022-10-27T20:34:23.103Z,10.40
2022-10-27T20:36:50.810Z,11.00
2022-10-27T20:39:22.358Z,10.40
2022-10-27T20:41:50.178Z,10.20
2022-10-27T20:44:17.887Z,11.10
2022-10-27T20:46:45.638Z,10.00
2022-10-27T20:49:13.343Z,11.10
2022-10-27T20:51:41.113Z,10.90
2022-10-27T20:54:13.957Z,11.50
2022-10-27T20:56:41.704Z,10.50
2022-10-27T20:59:09.586Z,10.40
2022-10-27T21:01:40.959Z,9.90
2022-10-27T21:04:10.952Z,9.70
2022-10-27T21:06:44.010Z,9.80
2022-10-27T21:09:15.463Z,9.50
2022-10-27T21:11:44.859Z,8.60
2022-10-27T21:14:13.394Z,8.70
2022-10-27T21:16:41.193Z,8.60
2022-10-27T21:19:10.480Z,8.40
2022-10-27T21:21:39.145Z,8.40
2022-10-27T21:24:08.089Z,9.10
2022-10-27T21:26:36.937Z,7.60
2022-10-27T21:29:04.615Z,8.20
2022-10-27T21:31:33.036Z,8.60
2022-10-27T21:34:03.664Z,8.50
2022-10-27T21:36:31.901Z,8.20
2022-10-27T21:39:00.566Z,8.50
2022-10-27T21:41:28.557Z,9.30
2022-10-27T21:43:56.853Z,9.10
2022-10-27T21:46:28.980Z,10.10
2022-10-27T21:48:59.872Z,10.10
2022-10-27T21:51:29.713Z,10.60
2022-10-27T21:54:03.818Z,9.70
2022-10-27T21:56:35.185Z,11.10
2022-10-27T21:59:04.376Z,11.40
2022-10-27T22:01:32.339Z,10.30
2022-10-27T22:04:00.456Z,10.40
2022-10-27T22:06:45.679Z,10.70
2022-10-27T22:09:13.459Z,11.10
2022-10-27T22:11:41.214Z,9.90
2022-10-27T22:14:12.350Z,11.10
2022-10-27T22:16:40.029Z,11.40
2022-10-27T22:19:08.834Z,12.30
2022-10-27T22:21:39.460Z,10.70
2022-10-27T22:24:08.099Z,10.60
2022-10-27T22:26:41.031Z,10.10
2022-10-27T22:29:10.432Z,10.80
2022-10-27T22:31:38.173Z,10.40
2022-10-27T22:34:05.999Z,10.10
2022-10-27T22:36:34.655Z,10.70
2022-10-27T22:39:04.294Z,10.70
2022-10-27T22:41:35.542Z,10.00
2022-10-27T22:44:04.349Z,10.50
2022-10-27T22:46:34.017Z,9.30
2022-10-27T22:49:02.378Z,9.60
2022-10-27T22:51:30.286Z,9.20
2022-10-27T22:53:59.335Z,9.90
2022-10-27T22:56:33.439Z,9.00
2022-10-27T22:59:04.296Z,9.20
2022-10-27T23:01:36.021Z,9.00
2022-10-27T23:04:07.496Z,9.30
2022-10-27T23:06:38.006Z,9.00
2022-10-27T23:09:14.573Z,9.10
2022-10-27T23:11:43.635Z,9.80
2022-10-27T23:14:14.239Z,9.60
2022-10-27T23:16:43.166Z,9.20
2022-10-27T23:19:13.358Z,9.30
2022-10-27T23:21:41.248Z,9.20
2022-10-27T23:24:09.221Z,8.90
2022-10-27T23:26:39.404Z,8.90
2022-10-27T23:29:12.701Z,9.10
2022-10-27T23:31:40.767Z,10.30
2022-10-27T23:34:11.042Z,9.10
2022-10-27T23:36:39.498Z,8.40
2022-10-27T23:39:07.265Z,8.70
2022-10-27T23:41:35.122Z,8.50
2022-10-27T23:44:03.017Z,7.90
2022-10-27T23:46:30.947Z,8.50
2022-10-27T23:48:59.234Z,8.70
2022-10-27T23:51:27.975Z,8.40
2022-10-27T23:53:56.055Z,8.00
2022-10-27T23:56:25.324Z,7.30
2022-10-27T23:58:53.250Z,8.00
